Time;durP1;ratioP1;P1;durP2;ratioP2;P2;SDS_P1;SDS_P2;PMS_P1;PMS_P2;Temp;Humidity;BMP_temperature;BMP_pressure;BME280_temperature;BME280_humidity;BME280_pressure;Samples;Min_cycle;Max_cycle;Signal;HPM_P1;HPM_P2
2019/09/07 00:00:20;;;;;;;5.1;2.6;;;;;;;13.04;71.53711;1006.203;;;;
2019/09/07 00:02:39;;;;;;;4.2;2.3;;;;;;;13.02;71.1875;1006.171;;;;
2019/09/07 00:05:04;;;;;;;4.4;2.3;;;;;;;13.05;70.74414;1006.176;;;;
2019/09/07 00:07:29;;;;;;;6.9;2.7;;;;;;;13.05;70.42188;1006.157;;;;
2019/09/07 00:09:54;;;;;;;5.5;2.5;;;;;;;13;70.40137;1006.143;;;;
2019/09/07 00:12:20;;;;;;;5.1;2.7;;;;;;;13.01;70.12793;1006.192;;;;
2019/09/07 00:14:45;;;;;;;6.8;3.3;;;;;;;13.07;69.95215;1006.179;;;;
2019/09/07 00:17:10;;;;;;;5.7;2.7;;;;;;;12.97;70.22461;1006.157;;;;
2019/09/07 00:19:35;;;;;;;7.6;2.8;;;;;;;12.84;70.74316;1006.165;;;;
2019/09/07 00:22:00;;;;;;;5;2.6;;;;;;;12.82;70.75391;1006.174;;;;
2019/09/07 00:24:25;;;;;;;4.3;2.4;;;;;;;12.79;70.77051;1006.177;;;;
2019/09/07 00:26:51;;;;;;;4.7;3;;;;;;;12.84;70.52441;1006.147;;;;
2019/09/07 00:29:16;;;;;;;5.8;3.4;;;;;;;12.83;70.38672;1006.143;;;;
2019/09/07 00:31:41;;;;;;;7.9;3;;;;;;;12.84;70.30664;1006.126;;;;
2019/09/07 00:34:06;;;;;;;6.4;3.5;;;;;;;12.87;70.24316;1006.154;;;;
2019/09/07 00:36:32;;;;;;;10.4;4.2;;;;;;;12.92;70.07715;1006.158;;;;
2019/09/07 00:38:56;;;;;;;8;3.4;;;;;;;13.09;69.50781;1006.143;;;;
2019/09/07 00:41:21;;;;;;;6;2.9;;;;;;;13.26;68.73926;1006.111;;;;
2019/09/07 00:43:47;;;;;;;3.5;2.3;;;;;;;13.39;68.37988;1006.148;;;;
2019/09/07 00:46:12;;;;;;;3.8;2;;;;;;;13.48;67.86426;1006.099;;;;
2019/09/07 00:48:37;;;;;;;3.4;1.9;;;;;;;13.66;67.24609;1006.131;;;;
2019/09/07 00:51:02;;;;;;;3;2;;;;;;;13.81;66.89941;1006.101;;;;
2019/09/07 00:53:27;;;;;;;4.7;2.3;;;;;;;13.83;66.82227;1006.086;;;;
2019/09/07 00:55:52;;;;;;;8.4;2.2;;;;;;;13.71;67.18359;1006.093;;;;
2019/09/07 00:58:17;;;;;;;7.4;2.2;;;;;;;13.73;67.25586;1006.073;;;;
2019/09/07 01:00:42;;;;;;;5.4;1.9;;;;;;;13.75;67.13281;1006.095;;;;
2019/09/07 01:03:07;;;;;;;3.6;2;;;;;;;13.76;67.05371;1006.053;;;;
2019/09/07 01:05:32;;;;;;;3.2;1.7;;;;;;;13.79;66.85059;1006.097;;;;
2019/09/07 01:07:58;;;;;;;4.1;1.9;;;;;;;13.78;66.89551;1006.055;;;;
2019/09/07 01:10:23;;;;;;;3.9;1.8;;;;;;;13.84;66.61523;1006.037;;;;
2019/09/07 01:12:48;;;;;;;3.5;1.8;;;;;;;13.79;66.73535;1006.007;;;;
2019/09/07 01:15:13;;;;;;;4.8;1.9;;;;;;;13.73;66.83105;1005.961;;;;
2019/09/07 01:17:38;;;;;;;4.3;1.8;;;;;;;13.64;67.31152;1005.92;;;;
2019/09/07 01:20:04;;;;;;;4.8;1.9;;;;;;;13.72;67.03516;1005.918;;;;
2019/09/07 01:22:29;;;;;;;6.6;1.8;;;;;;;13.65;67.14063;1005.903;;;;
2019/09/07 01:24:54;;;;;;;5.3;1.9;;;;;;;13.59;67.33789;1005.882;;;;
2019/09/07 01:27:19;;;;;;;3.3;1.7;;;;;;;13.7;66.81348;1005.897;;;;
2019/09/07 01:29:44;;;;;;;2.3;1.8;;;;;;;13.72;66.64355;1005.855;;;;
2019/09/07 01:32:09;;;;;;;4.5;2;;;;;;;13.73;66.66895;1005.886;;;;
2019/09/07 01:34:35;;;;;;;4;2;;;;;;;13.76;66.51172;1005.855;;;;
2019/09/07 01:36:59;;;;;;;3.5;1.9;;;;;;;13.74;66.51953;1005.835;;;;
2019/09/07 01:39:25;;;;;;;6.2;2.2;;;;;;;13.68;66.66113;1005.84;;;;
2019/09/07 01:41:50;;;;;;;3.4;1.9;;;;;;;13.67;66.55566;1005.812;;;;
2019/09/07 01:44:15;;;;;;;6.1;1.7;;;;;;;13.68;66.36133;1005.818;;;;
2019/09/07 01:46:40;;;;;;;3.7;1.7;;;;;;;13.59;66.60254;1005.848;;;;
2019/09/07 01:49:05;;;;;;;5.5;1.8;;;;;;;13.64;66.41309;1005.845;;;;
2019/09/07 01:51:31;;;;;;;4.6;1.9;;;;;;;13.7;66.13281;1005.811;;;;
2019/09/07 01:53:56;;;;;;;2.9;1.6;;;;;;;13.66;66.15039;1005.818;;;;
2019/09/07 01:56:21;;;;;;;4.6;1.9;;;;;;;13.65;66.06836;1005.807;;;;
2019/09/07 01:58:46;;;;;;;3.7;1.6;;;;;;;13.64;65.9043;1005.811;;;;
2019/09/07 02:01:11;;;;;;;3.8;1.8;;;;;;;13.77;65.20996;1005.767;;;;
2019/09/07 02:03:36;;;;;;;4.7;1.9;;;;;;;13.77;64.875;1005.76;;;;
2019/09/07 02:06:01;;;;;;;5.7;1.8;;;;;;;13.8;64.79883;1005.75;;;;
2019/09/07 02:08:26;;;;;;;4.1;1.8;;;;;;;13.77;64.96875;1005.729;;;;
2019/09/07 02:10:52;;;;;;;3.2;1.6;;;;;;;13.8;64.74121;1005.721;;;;
2019/09/07 02:13:17;;;;;;;3.5;1.7;;;;;;;13.76;64.90918;1005.736;;;;
2019/09/07 02:15:42;;;;;;;5.1;1.7;;;;;;;13.71;64.87793;1005.754;;;;
2019/09/07 02:18:07;;;;;;;5.2;2.1;;;;;;;13.81;64.55957;1005.724;;;;
2019/09/07 02:20:32;;;;;;;6;2;;;;;;;13.73;64.70898;1005.746;;;;
2019/09/07 02:22:57;;;;;;;4.3;2;;;;;;;13.7;64.72656;1005.72;;;;
2019/09/07 02:25:23;;;;;;;4.2;1.7;;;;;;;13.66;64.80176;1005.706;;;;
2019/09/07 02:27:48;;;;;;;3.7;1.9;;;;;;;13.65;64.68457;1005.716;;;;
2019/09/07 02:30:13;;;;;;;3.8;2;;;;;;;13.65;64.58105;1005.704;;;;
2019/09/07 02:32:38;;;;;;;4.4;1.8;;;;;;;13.62;64.62305;1005.636;;;;
2019/09/07 02:35:03;;;;;;;3.5;1.6;;;;;;;13.67;64.44531;1005.615;;;;
2019/09/07 02:37:28;;;;;;;5.9;1.6;;;;;;;13.64;64.46484;1005.608;;;;
2019/09/07 02:39:53;;;;;;;4.3;1.8;;;;;;;13.67;64.33008;1005.597;;;;
2019/09/07 02:42:18;;;;;;;5.8;1.9;;;;;;;13.65;64.28125;1005.551;;;;
2019/09/07 02:44:43;;;;;;;3.8;1.6;;;;;;;13.74;63.88965;1005.565;;;;
2019/09/07 02:47:09;;;;;;;3.5;1.8;;;;;;;13.72;63.7959;1005.579;;;;
2019/09/07 02:49:34;;;;;;;3.7;1.6;;;;;;;13.76;63.45508;1005.561;;;;
2019/09/07 02:51:59;;;;;;;6.3;1.8;;;;;;;13.64;63.98047;1005.544;;;;
2019/09/07 02:54:24;;;;;;;3.5;1.6;;;;;;;13.69;63.72168;1005.53;;;;
2019/09/07 02:56:49;;;;;;;3.9;1.7;;;;;;;13.73;63.57813;1005.52;;;;
2019/09/07 02:59:15;;;;;;;5;1.8;;;;;;;13.68;63.65137;1005.516;;;;
2019/09/07 03:01:40;;;;;;;2.6;1.4;;;;;;;13.83;63.05078;1005.505;;;;
2019/09/07 03:04:05;;;;;;;3;1.6;;;;;;;13.78;63.1709;1005.485;;;;
2019/09/07 03:06:30;;;;;;;4;1.7;;;;;;;13.81;63.05859;1005.524;;;;
2019/09/07 03:08:55;;;;;;;4.1;1.4;;;;;;;13.88;62.65332;1005.487;;;;
2019/09/07 03:11:20;;;;;;;3.9;1.8;;;;;;;13.99;62.06934;1005.546;;;;
2019/09/07 03:13:45;;;;;;;4;1.7;;;;;;;13.99;62.20898;1005.492;;;;
2019/09/07 03:16:10;;;;;;;3.8;1.4;;;;;;;13.97;61.99805;1005.517;;;;
2019/09/07 03:18:35;;;;;;;5.4;1.7;;;;;;;13.99;61.97656;1005.567;;;;
2019/09/07 03:21:01;;;;;;;4.4;1.7;;;;;;;13.96;62.06543;1005.583;;;;
2019/09/07 03:23:26;;;;;;;3.2;1.5;;;;;;;13.99;61.89551;1005.616;;;;
2019/09/07 03:25:51;;;;;;;5.9;1.4;;;;;;;14.04;61.55762;1005.628;;;;
2019/09/07 03:28:16;;;;;;;5.7;1.8;;;;;;;14.01;61.69238;1005.635;;;;
2019/09/07 03:30:42;;;;;;;4.7;1.7;;;;;;;13.98;61.87305;1005.659;;;;
2019/09/07 03:33:07;;;;;;;4.5;1.8;;;;;;;14;61.97949;1005.704;;;;
2019/09/07 03:35:32;;;;;;;2.9;1.5;;;;;;;14.02;62.1084;1005.62;;;;
2019/09/07 03:37:57;;;;;;;2.2;1.5;;;;;;;13.97;62.44727;1005.682;;;;
2019/09/07 03:40:22;;;;;;;5.4;1.8;;;;;;;13.98;62.55371;1005.693;;;;
2019/09/07 03:42:47;;;;;;;4.1;1.6;;;;;;;14.03;62.51367;1005.697;;;;
2019/09/07 03:45:12;;;;;;;4.1;1.8;;;;;;;13.93;62.99414;1005.723;;;;
2019/09/07 03:47:38;;;;;;;5.2;1.5;;;;;;;13.83;63.52344;1005.716;;;;
2019/09/07 03:50:03;;;;;;;3.7;1.6;;;;;;;13.86;63.57422;1005.701;;;;
2019/09/07 03:52:28;;;;;;;5.3;1.9;;;;;;;13.72;64.07324;1005.675;;;;
2019/09/07 03:54:53;;;;;;;4.8;1.9;;;;;;;13.67;64.37598;1005.661;;;;
2019/09/07 03:57:18;;;;;;;5.1;2;;;;;;;13.66;64.55957;1005.637;;;;
2019/09/07 03:59:43;;;;;;;5.2;1.8;;;;;;;13.66;64.66211;1005.64;;;;
2019/09/07 04:02:28;;;;;;;2.5;1.7;;;;;;;13.65;64.63867;1005.611;;;;
2019/09/07 04:04:53;;;;;;;6.6;1.7;;;;;;;13.59;64.77832;1005.642;;;;
2019/09/07 04:07:18;;;;;;;3.7;1.8;;;;;;;13.62;64.66797;1005.664;;;;
2019/09/07 04:09:43;;;;;;;4.9;1.9;;;;;;;13.65;64.3623;1005.707;;;;
2019/09/07 04:12:08;;;;;;;5.4;1.8;;;;;;;13.57;64.53516;1005.666;;;;
2019/09/07 04:14:33;;;;;;;3.8;1.7;;;;;;;13.7;64.0127;1005.662;;;;
2019/09/07 04:16:58;;;;;;;4.1;1.7;;;;;;;13.76;63.61719;1005.655;;;;
2019/09/07 04:19:23;;;;;;;5.3;1.8;;;;;;;13.9;63.15332;1005.651;;;;
2019/09/07 04:21:49;;;;;;;3.8;1.6;;;;;;;13.81;63.27734;1005.689;;;;
2019/09/07 04:24:14;;;;;;;3.8;1.7;;;;;;;13.75;63.44141;1005.696;;;;
2019/09/07 04:26:39;;;;;;;4.4;1.5;;;;;;;13.75;63.51074;1005.774;;;;
2019/09/07 04:29:04;;;;;;;3.7;1.6;;;;;;;13.79;63.56348;1005.758;;;;
2019/09/07 04:31:29;;;;;;;4.2;1.7;;;;;;;13.82;63.33789;1005.763;;;;
2019/09/07 04:33:54;;;;;;;3.6;1.5;;;;;;;13.8;63.42578;1005.746;;;;
2019/09/07 04:36:19;;;;;;;5.6;1.7;;;;;;;13.73;63.70508;1005.763;;;;
2019/09/07 04:38:44;;;;;;;4.9;1.9;;;;;;;13.73;63.85352;1005.711;;;;
2019/09/07 04:41:10;;;;;;;5;2.3;;;;;;;13.61;64.18359;1005.702;;;;
2019/09/07 04:43:35;;;;;;;4.9;1.8;;;;;;;13.53;64.50488;1005.721;;;;
2019/09/07 04:46:00;;;;;;;4.9;1.8;;;;;;;13.61;64.13672;1005.725;;;;
2019/09/07 04:48:25;;;;;;;5.3;1.7;;;;;;;13.65;63.99316;1005.691;;;;
2019/09/07 04:50:50;;;;;;;7.1;2.1;;;;;;;13.63;64.03711;1005.704;;;;
2019/09/07 04:53:15;;;;;;;5.6;1.6;;;;;;;13.6;63.85938;1005.76;;;;
2019/09/07 04:55:40;;;;;;;2.8;1.5;;;;;;;13.54;63.90723;1005.74;;;;
2019/09/07 04:58:05;;;;;;;5.1;1.6;;;;;;;13.67;63.27051;1005.776;;;;
2019/09/07 05:00:30;;;;;;;3.6;1.6;;;;;;;13.72;63.08105;1005.788;;;;
2019/09/07 05:02:55;;;;;;;4.4;1.7;;;;;;;13.85;62.60352;1005.837;;;;
2019/09/07 05:05:21;;;;;;;3.9;1.6;;;;;;;13.81;62.47168;1005.819;;;;
2019/09/07 05:07:46;;;;;;;5.6;1.7;;;;;;;13.74;62.62109;1005.825;;;;
2019/09/07 05:10:11;;;;;;;4.5;1.5;;;;;;;13.78;62.25977;1005.816;;;;
2019/09/07 05:12:36;;;;;;;4.4;1.7;;;;;;;13.86;61.82031;1005.811;;;;
2019/09/07 05:15:01;;;;;;;3.7;1.6;;;;;;;13.81;61.73145;1005.787;;;;
2019/09/07 05:17:26;;;;;;;2.9;1.6;;;;;;;13.91;61.38965;1005.736;;;;
2019/09/07 05:19:51;;;;;;;3.9;1.6;;;;;;;13.94;61.17383;1005.747;;;;
2019/09/07 05:22:16;;;;;;;4.2;1.7;;;;;;;14.03;60.75977;1005.742;;;;
2019/09/07 05:24:42;;;;;;;5.5;1.5;;;;;;;14.01;60.57227;1005.744;;;;
2019/09/07 05:27:07;;;;;;;5.4;1.6;;;;;;;14.14;60.11719;1005.732;;;;
2019/09/07 05:29:32;;;;;;;3.8;1.6;;;;;;;14.11;60.01953;1005.773;;;;
2019/09/07 05:31:57;;;;;;;3.6;1.4;;;;;;;14.13;59.63184;1005.811;;;;
2019/09/07 05:34:22;;;;;;;4.6;1.5;;;;;;;14.13;59.74609;1005.846;;;;
2019/09/07 05:36:47;;;;;;;4.4;1.6;;;;;;;14.17;59.72852;1005.912;;;;
2019/09/07 05:39:12;;;;;;;5.5;1.7;;;;;;;14.34;58.93262;1005.847;;;;
2019/09/07 05:41:37;;;;;;;3.6;1.4;;;;;;;14.2;58.96973;1005.907;;;;
2019/09/07 05:44:02;;;;;;;4.3;1.5;;;;;;;14.21;59.17969;1005.906;;;;
2019/09/07 05:46:27;;;;;;;4.6;1.6;;;;;;;14.4;58.75488;1005.889;;;;
2019/09/07 05:48:52;;;;;;;5.1;1.5;;;;;;;14.43;58.50488;1005.868;;;;
2019/09/07 05:51:17;;;;;;;4.9;1.8;;;;;;;14.46;58.38184;1005.815;;;;
2019/09/07 05:53:42;;;;;;;6.8;1.9;;;;;;;14.48;58.22363;1005.785;;;;
2019/09/07 05:56:07;;;;;;;4.1;1.3;;;;;;;14.57;57.90039;1005.824;;;;
2019/09/07 05:58:32;;;;;;;3.9;1.7;;;;;;;14.66;57.76172;1005.881;;;;
2019/09/07 06:00:58;;;;;;;5.7;1.8;;;;;;;14.74;57.37988;1005.871;;;;
2019/09/07 06:03:23;;;;;;;5.9;1.5;;;;;;;14.68;57.5791;1005.855;;;;
2019/09/07 06:05:48;;;;;;;4.2;1.5;;;;;;;14.57;57.91211;1005.863;;;;
2019/09/07 06:08:13;;;;;;;4.6;1.7;;;;;;;14.69;57.31445;1005.873;;;;
2019/09/07 06:10:38;;;;;;;3.7;1.4;;;;;;;14.68;57.30176;1005.886;;;;
2019/09/07 06:13:03;;;;;;;4.4;1.6;;;;;;;14.97;56.47266;1005.856;;;;
2019/09/07 06:15:28;;;;;;;5.2;1.5;;;;;;;14.74;56.89453;1005.851;;;;
2019/09/07 06:17:53;;;;;;;4.9;1.6;;;;;;;14.85;56.61816;1005.794;;;;
2019/09/07 06:20:18;;;;;;;7.5;1.8;;;;;;;14.99;56.14063;1005.792;;;;
2019/09/07 06:22:43;;;;;;;7.8;2.3;;;;;;;15.14;55.48926;1005.799;;;;
2019/09/07 06:25:09;;;;;;;9.2;2.2;;;;;;;15.25;55.1084;1005.781;;;;
2019/09/07 06:27:34;;;;;;;6.5;1.9;;;;;;;15.31;54.82715;1005.814;;;;
2019/09/07 06:29:59;;;;;;;6;1.8;;;;;;;15.4;54.39844;1005.827;;;;
2019/09/07 06:32:24;;;;;;;8.6;1.6;;;;;;;15.57;53.74805;1005.853;;;;
2019/09/07 06:34:49;;;;;;;5.8;1.6;;;;;;;15.72;52.78223;1005.858;;;;
2019/09/07 06:37:14;;;;;;;5.9;1.7;;;;;;;15.95;52.51855;1005.864;;;;
2019/09/07 06:39:39;;;;;;;3.6;1.5;;;;;;;16.16;52.01074;1005.829;;;;
2019/09/07 06:42:04;;;;;;;8;1.5;;;;;;;16.64;50.55957;1005.818;;;;
2019/09/07 06:44:29;;;;;;;6.1;1.6;;;;;;;16.56;50.53809;1005.827;;;;
2019/09/07 06:46:54;;;;;;;5.4;1.4;;;;;;;16.51;50.32324;1005.866;;;;
2019/09/07 06:49:20;;;;;;;8.3;1.5;;;;;;;16.6;50.37988;1005.888;;;;
2019/09/07 06:51:45;;;;;;;7.2;1.6;;;;;;;16.67;50.09668;1005.902;;;;
2019/09/07 06:54:10;;;;;;;3.6;1.4;;;;;;;16.9;49.60156;1005.919;;;;
2019/09/07 06:56:35;;;;;;;12.4;1.5;;;;;;;17.1;48.90234;1005.906;;;;
2019/09/07 06:59:00;;;;;;;5.2;1.3;;;;;;;16.84;49.28125;1005.947;;;;
2019/09/07 07:01:25;;;;;;;5.7;1.6;;;;;;;16.85;49.07324;1005.954;;;;
2019/09/07 07:03:50;;;;;;;2.4;1.3;;;;;;;16.8;49.53223;1005.948;;;;
2019/09/07 07:06:15;;;;;;;6.1;1.5;;;;;;;16.73;49.41895;1006.001;;;;
2019/09/07 07:08:41;;;;;;;4.3;1.4;;;;;;;16.73;49.54785;1006;;;;
2019/09/07 07:11:06;;;;;;;3.8;1.5;;;;;;;17.03;49.09277;1006.025;;;;
2019/09/07 07:13:31;;;;;;;3.8;1.5;;;;;;;16.84;49.15332;1006.019;;;;
2019/09/07 07:15:56;;;;;;;3.6;1.6;;;;;;;17.03;48.65137;1006.018;;;;
2019/09/07 07:18:21;;;;;;;4.9;1.6;;;;;;;17;48.27539;1006.027;;;;
2019/09/07 07:20:46;;;;;;;5;1.5;;;;;;;16.98;48.4834;1006.018;;;;
2019/09/07 07:23:11;;;;;;;4;1.5;;;;;;;16.95;48.21289;1006.015;;;;
2019/09/07 07:25:36;;;;;;;6.7;1.5;;;;;;;16.78;48.83301;1006.003;;;;
2019/09/07 07:28:01;;;;;;;4.5;1.5;;;;;;;16.93;48.52441;1006.045;;;;
2019/09/07 07:30:26;;;;;;;5.2;1.4;;;;;;;16.86;48.61035;1006.064;;;;
2019/09/07 07:32:51;;;;;;;4;1.4;;;;;;;16.92;48.22168;1006.08;;;;
2019/09/07 07:35:16;;;;;;;3.9;1.5;;;;;;;17.03;48.58203;1006.083;;;;
2019/09/07 07:37:42;;;;;;;4;1.3;;;;;;;17.2;48.06641;1006.083;;;;
2019/09/07 07:40:07;;;;;;;5;1.4;;;;;;;17.2;47.71777;1006.102;;;;
2019/09/07 07:42:32;;;;;;;5.4;1.5;;;;;;;17.17;48.33008;1006.143;;;;
2019/09/07 07:44:57;;;;;;;4.5;1.3;;;;;;;17.26;48.38672;1006.178;;;;
2019/09/07 07:47:22;;;;;;;5;1.5;;;;;;;17.28;47.61035;1006.153;;;;
2019/09/07 07:49:47;;;;;;;5.4;1.7;;;;;;;17.28;47.87598;1006.241;;;;
2019/09/07 07:52:12;;;;;;;3.9;1.4;;;;;;;17.35;46.52441;1006.223;;;;
2019/09/07 07:54:37;;;;;;;3.4;1.6;;;;;;;17.2;47.48535;1006.26;;;;
2019/09/07 07:57:02;;;;;;;3.2;1.3;;;;;;;17.45;47.33789;1006.291;;;;
2019/09/07 07:59:27;;;;;;;3.7;1.3;;;;;;;17.48;47.5498;1006.268;;;;
2019/09/07 08:01:53;;;;;;;6.3;1.3;;;;;;;17.48;47.63184;1006.248;;;;
2019/09/07 08:04:18;;;;;;;5.2;1.5;;;;;;;17.47;47.10742;1006.243;;;;
2019/09/07 08:06:43;;;;;;;5.5;1.4;;;;;;;17.37;47.29395;1006.206;;;;
2019/09/07 08:09:08;;;;;;;5.6;1.3;;;;;;;17.74;46.6709;1006.276;;;;
2019/09/07 08:11:33;;;;;;;6.3;1.5;;;;;;;17.4;47.83203;1006.258;;;;
2019/09/07 08:13:58;;;;;;;4.3;1.4;;;;;;;17.76;47.08008;1006.29;;;;
2019/09/07 08:16:23;;;;;;;6.6;1.9;;;;;;;17.85;47.24121;1006.306;;;;
2019/09/07 08:18:48;;;;;;;4.9;1.7;;;;;;;18.07;46.6123;1006.268;;;;
2019/09/07 08:21:13;;;;;;;4.1;1.8;;;;;;;18.17;46.21582;1006.267;;;;
2019/09/07 08:23:38;;;;;;;5;1.5;;;;;;;18.38;46.26074;1006.329;;;;
2019/09/07 08:26:03;;;;;;;4.4;1.9;;;;;;;18.42;46.66016;1006.324;;;;
2019/09/07 08:28:28;;;;;;;4.9;2;;;;;;;18.4;47.11426;1006.322;;;;
2019/09/07 08:30:53;;;;;;;6;1.8;;;;;;;18.35;47.30664;1006.316;;;;
2019/09/07 08:33:19;;;;;;;3.4;1.6;;;;;;;18.3;48.41992;1006.354;;;;
2019/09/07 08:35:44;;;;;;;5;1.8;;;;;;;17.61;50.92578;1006.327;;;;
2019/09/07 08:38:09;;;;;;;5.8;1.8;;;;;;;17.48;51.88867;1006.34;;;;
2019/09/07 08:40:34;;;;;;;3.6;1.7;;;;;;;17.43;52.49902;1006.343;;;;
2019/09/07 08:42:59;;;;;;;4.5;1.7;;;;;;;17.69;52.2627;1006.371;;;;
2019/09/07 08:45:24;;;;;;;7.6;1.5;;;;;;;17.8;52.56641;1006.347;;;;
2019/09/07 08:47:49;;;;;;;5.6;1.5;;;;;;;17.74;52.79199;1006.386;;;;
2019/09/07 08:50:14;;;;;;;6.2;1.8;;;;;;;17.42;54.18359;1006.363;;;;
2019/09/07 08:52:39;;;;;;;3.7;1.7;;;;;;;17.31;54.94922;1006.396;;;;
2019/09/07 08:55:04;;;;;;;4.3;1.8;;;;;;;17.05;55.60254;1006.429;;;;
2019/09/07 08:57:30;;;;;;;6;1.9;;;;;;;16.58;57.34277;1006.47;;;;
2019/09/07 08:59:55;;;;;;;5.6;2;;;;;;;16.75;57.53906;1006.516;;;;
2019/09/07 09:02:20;;;;;;;5.5;1.9;;;;;;;16.8;58.93945;1006.467;;;;
2019/09/07 09:04:45;;;;;;;5.6;1.7;;;;;;;16.86;57.40234;1006.503;;;;
2019/09/07 09:07:10;;;;;;;4.4;1.8;;;;;;;16.87;57.96094;1006.492;;;;
2019/09/07 09:09:35;;;;;;;6.2;1.6;;;;;;;16.93;57.5166;1006.568;;;;
2019/09/07 09:12:00;;;;;;;4.9;1.8;;;;;;;17.01;56.14453;1006.589;;;;
2019/09/07 09:14:25;;;;;;;8.1;1.8;;;;;;;16.97;58.125;1006.604;;;;
2019/09/07 09:16:50;;;;;;;3.4;1.8;;;;;;;17.08;56.22168;1006.549;;;;
2019/09/07 09:19:15;;;;;;;5.1;1.6;;;;;;;17.09;58.0127;1006.537;;;;
2019/09/07 09:21:41;;;;;;;3.9;1.8;;;;;;;17.16;58.0459;1006.513;;;;
2019/09/07 09:24:06;;;;;;;3.6;1.8;;;;;;;16.98;58.91797;1006.533;;;;
2019/09/07 09:26:31;;;;;;;3.4;1.5;;;;;;;16.64;59.55566;1006.58;;;;
2019/09/07 09:28:56;;;;;;;3.7;1.7;;;;;;;16.5;59.38574;1006.586;;;;
2019/09/07 09:31:21;;;;;;;5;2;;;;;;;16.5;59.83887;1006.588;;;;
2019/09/07 09:33:46;;;;;;;4.8;1.9;;;;;;;16.59;60.47754;1006.588;;;;
2019/09/07 09:36:11;;;;;;;6;1.8;;;;;;;17.2;60.74805;1006.537;;;;
2019/09/07 09:38:36;;;;;;;4.4;1.7;;;;;;;17.25;59.35938;1006.553;;;;
2019/09/07 09:41:01;;;;;;;2.9;1.5;;;;;;;17.64;57.50488;1006.517;;;;
2019/09/07 09:43:26;;;;;;;4.7;1.8;;;;;;;17.69;56.87012;1006.513;;;;
2019/09/07 09:45:51;;;;;;;4.5;1.5;;;;;;;17.73;56.0498;1006.503;;;;
2019/09/07 09:48:17;;;;;;;6.3;1.8;;;;;;;17.5;57.38281;1006.459;;;;
2019/09/07 09:50:42;;;;;;;5.1;1.8;;;;;;;17.5;57.48633;1006.448;;;;
2019/09/07 09:53:07;;;;;;;3.5;1.5;;;;;;;17.45;58.14258;1006.477;;;;
2019/09/07 09:55:32;;;;;;;4.6;1.7;;;;;;;17.9;57.72363;1006.467;;;;
2019/09/07 09:57:57;;;;;;;5.5;1.7;;;;;;;17.92;57.38965;1006.482;;;;
2019/09/07 10:00:22;;;;;;;3.4;1.7;;;;;;;17.99;57.29492;1006.417;;;;
2019/09/07 10:02:47;;;;;;;5.3;1.9;;;;;;;17.64;56.25977;1006.363;;;;
2019/09/07 10:05:12;;;;;;;4.3;1.8;;;;;;;17.35;57.11816;1006.346;;;;
2019/09/07 10:07:37;;;;;;;3.6;1.6;;;;;;;17.5;58.65039;1006.329;;;;
2019/09/07 10:10:03;;;;;;;3.7;1.7;;;;;;;17.84;57.91504;1006.369;;;;
2019/09/07 10:12:28;;;;;;;4.7;1.9;;;;;;;17.8;55.98926;1006.354;;;;
2019/09/07 10:14:53;;;;;;;4.7;1.9;;;;;;;17.73;57.1543;1006.315;;;;
2019/09/07 10:17:18;;;;;;;4.5;1.7;;;;;;;17.57;59.34473;1006.259;;;;
2019/09/07 10:19:43;;;;;;;7.4;2;;;;;;;17.58;58.50879;1006.256;;;;
2019/09/07 10:22:09;;;;;;;6.2;1.7;;;;;;;17.63;57.64355;1006.235;;;;
2019/09/07 10:24:34;;;;;;;5.5;2;;;;;;;17.91;58.83203;1006.253;;;;
2019/09/07 10:26:59;;;;;;;5.7;1.9;;;;;;;17.82;57.52734;1006.189;;;;
2019/09/07 10:29:24;;;;;;;5.8;2;;;;;;;18.05;56.6377;1006.174;;;;
2019/09/07 10:31:49;;;;;;;5.4;1.8;;;;;;;17.93;55.10938;1006.203;;;;
2019/09/07 10:34:14;;;;;;;5.5;2.2;;;;;;;18;56.34082;1006.26;;;;
2019/09/07 10:36:40;;;;;;;5.1;2.2;;;;;;;17.68;56.8457;1006.212;;;;
2019/09/07 10:39:05;;;;;;;4.1;2.2;;;;;;;17.7;57.89551;1006.195;;;;
2019/09/07 10:41:30;;;;;;;5.1;2.1;;;;;;;18.04;57.1377;1006.13;;;;
2019/09/07 10:43:55;;;;;;;6.8;2.2;;;;;;;17.3;58.35547;1006.113;;;;
2019/09/07 10:46:20;;;;;;;5.2;2.1;;;;;;;17.6;59.10449;1006.118;;;;
2019/09/07 10:48:46;;;;;;;5.1;2;;;;;;;17.59;57.93945;1006.083;;;;
2019/09/07 10:51:11;;;;;;;8.2;2.4;;;;;;;17.62;57.37402;1006.132;;;;
2019/09/07 10:53:36;;;;;;;4;2;;;;;;;17.81;57.17773;1006.144;;;;
2019/09/07 10:56:01;;;;;;;4.3;1.8;;;;;;;17.55;57.75977;1006.141;;;;
2019/09/07 10:58:26;;;;;;;4.5;1.7;;;;;;;17.34;55.09375;1006.143;;;;
2019/09/07 11:00:51;;;;;;;6.7;1.8;;;;;;;17.29;57.79492;1006.068;;;;
2019/09/07 11:03:16;;;;;;;5.5;1.8;;;;;;;17.29;57.43457;1006.119;;;;
2019/09/07 11:05:41;;;;;;;4;1.8;;;;;;;16.98;59.89355;1006.103;;;;
2019/09/07 11:08:06;;;;;;;6.2;2.1;;;;;;;17.17;57.72168;1006.036;;;;
2019/09/07 11:10:32;;;;;;;6.4;2;;;;;;;17.22;57.74023;1006.032;;;;
2019/09/07 11:12:57;;;;;;;7.2;2.1;;;;;;;17.33;60.55664;1005.977;;;;
2019/09/07 11:15:22;;;;;;;5.4;2.1;;;;;;;17.24;59.67383;1006.009;;;;
2019/09/07 11:17:47;;;;;;;3.9;2;;;;;;;17.57;59.07617;1005.997;;;;
2019/09/07 11:20:12;;;;;;;7;2;;;;;;;17.6;59.38477;1006.001;;;;
2019/09/07 11:22:38;;;;;;;3.9;1.7;;;;;;;17.65;59.21777;1005.946;;;;
2019/09/07 11:25:03;;;;;;;5.2;2.2;;;;;;;17.64;59.00586;1005.925;;;;
2019/09/07 11:27:28;;;;;;;6.7;1.9;;;;;;;17.62;58.38574;1005.906;;;;
2019/09/07 11:29:53;;;;;;;5.4;2;;;;;;;17.69;60.36133;1005.858;;;;
2019/09/07 11:32:18;;;;;;;4.7;1.8;;;;;;;17.63;59.7959;1005.86;;;;
2019/09/07 11:34:43;;;;;;;4.3;1.7;;;;;;;17.68;59.2793;1005.834;;;;
2019/09/07 11:37:08;;;;;;;5.7;2.3;;;;;;;17.61;59.57129;1005.78;;;;
2019/09/07 11:39:33;;;;;;;4.6;2;;;;;;;17.62;59.99121;1005.772;;;;
2019/09/07 11:41:58;;;;;;;5.7;1.9;;;;;;;18.01;59.7666;1005.804;;;;
2019/09/07 11:44:23;;;;;;;4.5;2.1;;;;;;;18.01;57.87793;1005.772;;;;
2019/09/07 11:46:48;;;;;;;4.4;2;;;;;;;18.04;57.74414;1005.763;;;;
2019/09/07 11:49:14;;;;;;;7.8;2.1;;;;;;;18.09;58.58887;1005.782;;;;
2019/09/07 11:51:39;;;;;;;3.2;1.8;;;;;;;18.58;56.04102;1005.681;;;;
2019/09/07 11:54:04;;;;;;;4.7;2.1;;;;;;;18.24;58.85254;1005.735;;;;
2019/09/07 11:56:29;;;;;;;9.1;2.5;;;;;;;18.63;57.43652;1005.715;;;;
2019/09/07 11:58:54;;;;;;;6.2;2.2;;;;;;;18.65;56.77344;1005.676;;;;
2019/09/07 12:01:20;;;;;;;4.1;2.1;;;;;;;18.48;56.91504;1005.633;;;;
2019/09/07 12:03:45;;;;;;;5.8;1.9;;;;;;;18.17;56.81738;1005.631;;;;
2019/09/07 12:06:10;;;;;;;4.5;2;;;;;;;18.51;55.65918;1005.583;;;;
2019/09/07 12:08:35;;;;;;;4.6;1.9;;;;;;;18.65;56.2959;1005.562;;;;
2019/09/07 12:11:00;;;;;;;6.3;1.9;;;;;;;18.88;55.3916;1005.541;;;;
2019/09/07 12:13:25;;;;;;;4.7;2;;;;;;;18.97;56.75586;1005.494;;;;
2019/09/07 12:15:50;;;;;;;7.5;2;;;;;;;19.68;54.70801;1005.488;;;;
2019/09/07 12:18:15;;;;;;;4.1;2.2;;;;;;;20.24;53.65332;1005.439;;;;
2019/09/07 12:20:40;;;;;;;9.3;2.7;;;;;;;20.3;52.13965;1005.436;;;;
2019/09/07 12:23:06;;;;;;;4.1;1.8;;;;;;;19.8;49.61426;1005.383;;;;
2019/09/07 12:25:31;;;;;;;5.5;2.1;;;;;;;20.5;49.45801;1005.332;;;;
2019/09/07 12:27:56;;;;;;;4.6;2;;;;;;;20.27;48.17969;1005.379;;;;
2019/09/07 12:30:21;;;;;;;5.6;2;;;;;;;19.81;50.58398;1005.331;;;;
2019/09/07 12:32:46;;;;;;;5;1.9;;;;;;;20.19;49.83301;1005.294;;;;
2019/09/07 12:35:11;;;;;;;4.3;2.1;;;;;;;20.61;50.04492;1005.198;;;;
2019/09/07 12:37:36;;;;;;;3.9;1.8;;;;;;;21.14;46.24512;1005.182;;;;
2019/09/07 12:40:02;;;;;;;5.2;2;;;;;;;21.68;48.6748;1005.187;;;;
2019/09/07 12:42:27;;;;;;;4.6;1.6;;;;;;;20.89;45.64551;1005.169;;;;
2019/09/07 12:44:52;;;;;;;4.1;1.8;;;;;;;20.19;46.84863;1005.145;;;;
2019/09/07 12:47:17;;;;;;;3.5;1.7;;;;;;;20.29;47.59668;1005.12;;;;
2019/09/07 12:49:42;;;;;;;3.2;1.4;;;;;;;21.11;45.82031;1005.071;;;;
2019/09/07 12:52:07;;;;;;;5.1;1.8;;;;;;;21.18;45.49805;1005.04;;;;
2019/09/07 12:54:33;;;;;;;4.1;1.6;;;;;;;21.02;43.93457;1005.011;;;;
2019/09/07 12:56:58;;;;;;;8.2;1.7;;;;;;;20.91;44.60254;1004.973;;;;
2019/09/07 12:59:23;;;;;;;3.9;1.6;;;;;;;21.51;43.47852;1004.903;;;;
2019/09/07 13:01:48;;;;;;;4.1;1.6;;;;;;;21.52;44.6416;1004.922;;;;
2019/09/07 13:04:13;;;;;;;4;1.8;;;;;;;20.99;45.38574;1004.882;;;;
2019/09/07 13:06:38;;;;;;;3.7;1.6;;;;;;;21.33;45.93652;1004.821;;;;
2019/09/07 13:09:05;;;;;;;3.9;1.6;;;;;;;21.94;45.09473;1004.796;;;;
2019/09/07 13:11:28;;;;;;;3.7;1.7;;;;;;;22.06;44.97852;1004.745;;;;
2019/09/07 13:13:53;;;;;;;4.4;1.7;;;;;;;21.58;46.06934;1004.706;;;;
2019/09/07 13:16:18;;;;;;;4.3;2;;;;;;;21.16;47.25684;1004.654;;;;
2019/09/07 13:18:44;;;;;;;5.3;2;;;;;;;21.6;46.80957;1004.659;;;;
2019/09/07 13:21:09;;;;;;;4.6;1.6;;;;;;;21.49;47.13867;1004.632;;;;
2019/09/07 13:23:34;;;;;;;6.8;2;;;;;;;21.54;45.1709;1004.623;;;;
2019/09/07 13:25:59;;;;;;;5.6;2.1;;;;;;;21.49;48.125;1004.569;;;;
2019/09/07 13:28:24;;;;;;;3.8;1.8;;;;;;;21.94;45.74219;1004.568;;;;
2019/09/07 13:30:49;;;;;;;3.9;2;;;;;;;21.16;46.89258;1004.545;;;;
2019/09/07 13:33:15;;;;;;;7.1;2.1;;;;;;;21.07;46.47168;1004.536;;;;
2019/09/07 13:35:40;;;;;;;4.6;1.7;;;;;;;21;47.29785;1004.491;;;;
2019/09/07 13:38:05;;;;;;;3.4;1.9;;;;;;;21.44;46.76953;1004.458;;;;
2019/09/07 13:40:30;;;;;;;4.8;1.8;;;;;;;21.25;46.24512;1004.451;;;;
2019/09/07 13:42:55;;;;;;;3.9;1.8;;;;;;;20.95;46.08496;1004.401;;;;
2019/09/07 13:45:20;;;;;;;4.1;2;;;;;;;21.4;45.27441;1004.333;;;;
2019/09/07 13:47:45;;;;;;;4.1;1.6;;;;;;;21.77;45.30078;1004.4;;;;
2019/09/07 13:50:11;;;;;;;4.3;1.7;;;;;;;21.77;45.23047;1004.413;;;;
2019/09/07 13:52:36;;;;;;;5.4;2.4;;;;;;;21.41;46.20313;1004.388;;;;
2019/09/07 13:55:01;;;;;;;5.8;1.8;;;;;;;21.89;43.39844;1004.41;;;;
2019/09/07 13:57:26;;;;;;;4.1;1.6;;;;;;;21.87;44.59473;1004.365;;;;
2019/09/07 13:59:51;;;;;;;2.9;1.7;;;;;;;21.92;44.42383;1004.338;;;;
2019/09/07 14:02:16;;;;;;;4.5;1.7;;;;;;;21.78;45.21973;1004.338;;;;
2019/09/07 14:04:41;;;;;;;3;1.9;;;;;;;22.2;43.79297;1004.329;;;;
2019/09/07 14:07:07;;;;;;;3.8;1.8;;;;;;;22.09;45.18066;1004.307;;;;
2019/09/07 14:09:32;;;;;;;3.3;1.7;;;;;;;22.18;44.53223;1004.292;;;;
2019/09/07 14:11:57;;;;;;;4.8;1.8;;;;;;;21.53;45.42969;1004.246;;;;